Time;durP1;ratioP1;P1;durP2;ratioP2;P2;SDS_P1;SDS_P2;PMS_P1;PMS_P2;Temp;Humidity;BMP_temperature;BMP_pressure;BME280_temperature;BME280_humidity;BME280_pressure;Samples;Min_cycle;Max_cycle;Signal;HPM_P1;HPM_P2
2022/10/11 00:02:22;;;;;;;10.80;2.50;;;;;;;;;;5017648;28;20018;-28
2022/10/11 00:04:49;;;;;;;12.10;2.95;;;;;;;;;;5018221;28;20124;-28
2022/10/11 00:07:16;;;;;;;7.88;3.08;;;;;;;;;;5017935;28;20173;-28
2022/10/11 00:09:43;;;;;;;15.43;3.67;;;;;;;;;;5018125;28;20029;-28
2022/10/11 00:12:09;;;;;;;8.63;2.97;;;;;;;;;;5017719;28;20014;-28
2022/10/11 00:14:35;;;;;;;6.65;2.58;;;;;;;;;;5018025;28;20058;-28
2022/10/11 00:17:01;;;;;;;8.20;4.90;;;;;;;;;;5017694;28;20041;-28
2022/10/11 00:19:27;;;;;;;4.10;2.55;;;;;;;;;;5018428;28;20066;-28
2022/10/11 00:21:53;;;;;;;12.63;2.63;;;;;;;;;;5017512;28;20037;-29
2022/10/11 00:24:20;;;;;;;7.35;2.30;;;;;;;;;;5017803;28;20162;-28
2022/10/11 00:26:46;;;;;;;5.35;2.25;;;;;;;;;;5017556;28;20363;-28
2022/10/11 00:29:12;;;;;;;9.10;3.70;;;;;;;;;;5017766;28;20045;-29
2022/10/11 00:31:39;;;;;;;13.35;3.13;;;;;;;;;;5017399;28;20033;-28
2022/10/11 00:34:06;;;;;;;6.82;2.25;;;;;;;;;;5017372;28;20367;-28
2022/10/11 00:36:32;;;;;;;4.68;2.35;;;;;;;;;;5017619;28;20388;-28
2022/10/11 00:38:58;;;;;;;10.73;3.03;;;;;;;;;;5017289;28;20109;-29
2022/10/11 00:41:24;;;;;;;7.30;2.20;;;;;;;;;;5016716;28;20097;-29
2022/10/11 00:44:08;;;;;;;5.07;2.55;;;;;;;;;;5017376;28;20026;-28
2022/10/11 00:46:34;;;;;;;9.93;3.15;;;;;;;;;;5017485;28;20057;-29
2022/10/11 00:49:03;;;;;;;9.45;2.55;;;;;;;;;;5017149;28;20026;-29
2022/10/11 00:51:39;;;;;;;7.80;3.15;;;;;;;;;;5017362;28;20056;-28
2022/10/11 00:54:05;;;;;;;10.25;2.58;;;;;;;;;;5016955;28;20026;-28
2022/10/11 00:56:37;;;;;;;4.32;1.77;;;;;;;;;;5017012;28;20030;-28
2022/10/11 00:59:05;;;;;;;9.15;2.78;;;;;;;;;;5017226;28;20362;-28
2022/10/11 01:01:31;;;;;;;8.50;2.85;;;;;;;;;;5017177;28;20063;-28
2022/10/11 01:03:58;;;;;;;21.23;3.10;;;;;;;;;;5016523;28;20065;-28
2022/10/11 01:06:24;;;;;;;4.45;2.20;;;;;;;;;;5016849;28;20028;-28
2022/10/11 01:08:51;;;;;;;9.32;2.10;;;;;;;;;;5016744;28;20026;-28
2022/10/11 01:11:20;;;;;;;4.07;2.15;;;;;;;;;;5016982;28;20080;-28
2022/10/11 01:14:05;;;;;;;8.15;2.50;;;;;;;;;;5016648;28;20026;-28
2022/10/11 01:16:37;;;;;;;10.60;2.67;;;;;;;;;;5017407;28;20040;-29
2022/10/11 01:19:06;;;;;;;11.80;4.13;;;;;;;;;;5016574;28;20374;-28
2022/10/11 01:21:35;;;;;;;11.20;2.75;;;;;;;;;;5016770;28;20367;-28
2022/10/11 01:24:02;;;;;;;7.53;2.92;;;;;;;;;;5016353;28;20386;-28
2022/10/11 01:26:34;;;;;;;6.85;3.20;;;;;;;;;;5016427;28;20041;-28
2022/10/11 01:29:19;;;;;;;7.03;2.58;;;;;;;;;;5016644;28;20022;-28
2022/10/11 01:31:55;;;;;;;8.07;2.45;;;;;;;;;;5016265;28;20028;-29
2022/10/11 01:34:43;;;;;;;8.00;2.53;;;;;;;;;;5016651;28;20101;-28
2022/10/11 01:37:09;;;;;;;6.50;2.35;;;;;;;;;;5016245;28;20033;-29
2022/10/11 01:39:40;;;;;;;6.45;1.92;;;;;;;;;;5016174;28;20061;-28
2022/10/11 01:42:09;;;;;;;9.15;2.50;;;;;;;;;;5016083;28;20113;-28
2022/10/11 01:44:36;;;;;;;9.85;1.98;;;;;;;;;;5016033;28;20038;-29
2022/10/11 01:47:02;;;;;;;6.88;2.47;;;;;;;;;;5016082;28;20083;-28
2022/10/11 01:49:29;;;;;;;4.95;2.45;;;;;;;;;;5016024;28;20036;-29
2022/10/11 01:51:57;;;;;;;11.27;2.50;;;;;;;;;;5015681;28;20021;-28
2022/10/11 01:54:45;;;;;;;5.93;1.95;;;;;;;;;;5015328;28;20105;-28
2022/10/11 01:57:32;;;;;;;5.90;2.85;;;;;;;;;;5016198;28;20029;-28
2022/10/11 02:00:14;;;;;;;3.83;1.70;;;;;;;;;;5016108;28;20021;-28
2022/10/11 02:02:58;;;;;;;7.22;2.08;;;;;;;;;;5015623;28;20375;-29
2022/10/11 02:05:40;;;;;;;9.93;2.08;;;;;;;;;;5015998;28;20033;-29
2022/10/11 02:08:29;;;;;;;7.00;2.10;;;;;;;;;;5016012;28;20057;-29
2022/10/11 02:11:00;;;;;;;8.23;2.53;;;;;;;;;;4988251;28;20033;-28
2022/10/11 02:13:29;;;;;;;5.80;2.50;;;;;;;;;;5015339;28;20053;-28
2022/10/11 02:15:58;;;;;;;6.07;2.22;;;;;;;;;;5015801;28;20092;-29
2022/10/11 02:18:26;;;;;;;5.72;2.75;;;;;;;;;;5015513;28;20101;-29
2022/10/11 02:20:52;;;;;;;5.68;2.00;;;;;;;;;;5030960;28;20458;-28
2022/10/11 02:23:31;;;;;;;6.88;2.00;;;;;;;;;;5015313;28;20467;-28
2022/10/11 02:25:58;;;;;;;5.40;1.98;;;;;;;;;;5015374;28;20046;-28
2022/10/11 02:28:26;;;;;;;4.47;1.83;;;;;;;;;;5015303;28;20030;-28
2022/10/11 02:30:53;;;;;;;5.57;1.95;;;;;;;;;;5015251;28;20026;-28
2022/10/11 02:33:22;;;;;;;4.55;2.00;;;;;;;;;;5015168;28;20042;-28
2022/10/11 02:35:54;;;;;;;10.18;2.20;;;;;;;;;;5015566;28;20030;-29
2022/10/11 02:38:24;;;;;;;2.90;1.75;;;;;;;;;;5015533;28;20057;-28
2022/10/11 02:40:54;;;;;;;2.80;1.75;;;;;;;;;;5015462;28;20025;-28
2022/10/11 02:43:34;;;;;;;5.55;1.98;;;;;;;;;;5015010;28;20017;-29
2022/10/11 02:46:01;;;;;;;4.93;2.80;;;;;;;;;;5015130;28;20029;-29
2022/10/11 02:48:28;;;;;;;4.60;2.33;;;;;;;;;;5015326;28;20033;-28
2022/10/11 02:50:55;;;;;;;3.95;1.85;;;;;;;;;;5014998;28;20049;-28
2022/10/11 02:53:21;;;;;;;5.60;1.95;;;;;;;;;;5014869;28;20034;-29
2022/10/11 02:55:49;;;;;;;4.18;1.70;;;;;;;;;;5014967;28;20501;-29
2022/10/11 02:58:15;;;;;;;5.35;1.95;;;;;;;;;;5014868;28;20117;-28
2022/10/11 03:00:41;;;;;;;4.18;2.13;;;;;;;;;;5014896;28;20060;-28
2022/10/11 03:03:07;;;;;;;4.20;1.70;;;;;;;;;;5014552;28;20092;-29
2022/10/11 03:05:39;;;;;;;4.35;2.03;;;;;;;;;;5014627;28;20362;-28
2022/10/11 03:08:06;;;;;;;6.68;3.20;;;;;;;;;;5015944;28;20454;-28
2022/10/11 03:10:33;;;;;;;5.65;1.85;;;;;;;;;;5014765;28;20029;-28
2022/10/11 03:12:59;;;;;;;6.82;2.63;;;;;;;;;;5015001;28;20363;-28
2022/10/11 03:15:25;;;;;;;5.22;1.80;;;;;;;;;;5015029;28;20048;-28
2022/10/11 03:17:51;;;;;;;1.95;1.35;;;;;;;;;;5015010;28;20508;-29
2022/10/11 03:20:18;;;;;;;3.03;1.88;;;;;;;;;;5014996;28;20367;-28
2022/10/11 03:22:44;;;;;;;5.00;1.67;;;;;;;;;;5014826;28;20099;-28
2022/10/11 03:25:10;;;;;;;5.97;2.20;;;;;;;;;;5014707;28;20137;-28
2022/10/11 03:27:37;;;;;;;6.45;2.45;;;;;;;;;;5014662;28;20363;-28
2022/10/11 03:30:03;;;;;;;5.30;2.92;;;;;;;;;;5014654;28;20022;-28
2022/10/11 03:32:29;;;;;;;5.45;2.13;;;;;;;;;;5014814;28;20366;-29
2022/10/11 03:34:56;;;;;;;3.28;2.20;;;;;;;;;;5014527;28;20026;-29
2022/10/11 03:37:22;;;;;;;3.75;1.90;;;;;;;;;;5014772;28;20105;-28
2022/10/11 03:39:49;;;;;;;8.50;2.75;;;;;;;;;;5014778;28;20030;-28
2022/10/11 03:42:15;;;;;;;7.30;2.20;;;;;;;;;;5015138;28;20030;-29
2022/10/11 03:44:42;;;;;;;4.22;2.22;;;;;;;;;;5014669;28;20324;-28
2022/10/11 03:47:08;;;;;;;7.22;2.10;;;;;;;;;;5014344;28;20030;-29
2022/10/11 03:49:34;;;;;;;6.28;2.80;;;;;;;;;;5014382;28;20025;-29
2022/10/11 03:52:00;;;;;;;4.22;1.83;;;;;;;;;;5014205;28;20018;-28
2022/10/11 03:54:26;;;;;;;3.00;1.95;;;;;;;;;;5014868;28;20033;-28
2022/10/11 03:56:53;;;;;;;5.30;1.83;;;;;;;;;;5014228;28;20475;-29
2022/10/11 03:59:19;;;;;;;6.28;2.78;;;;;;;;;;5014436;28;20037;-28
2022/10/11 04:01:45;;;;;;;3.55;2.13;;;;;;;;;;5014121;28;20115;-28
2022/10/11 04:04:12;;;;;;;3.45;1.90;;;;;;;;;;5013872;28;20042;-29
2022/10/11 04:06:38;;;;;;;5.25;1.88;;;;;;;;;;5014004;28;20050;-29
2022/10/11 04:09:04;;;;;;;5.95;1.77;;;;;;;;;;5014173;28;20022;-28
2022/10/11 04:11:31;;;;;;;9.05;2.90;;;;;;;;;;5014329;28;20030;-28
2022/10/11 04:13:57;;;;;;;4.05;2.35;;;;;;;;;;5014028;28;20088;-28
2022/10/11 04:16:24;;;;;;;4.32;1.70;;;;;;;;;;5015620;28;20033;-28
2022/10/11 04:18:50;;;;;;;3.55;1.73;;;;;;;;;;5017606;28;20030;-28
2022/10/11 04:21:16;;;;;;;2.70;1.83;;;;;;;;;;5017501;28;20025;-28
2022/10/11 04:23:42;;;;;;;4.15;1.83;;;;;;;;;;5017620;28;20037;-28
2022/10/11 04:26:09;;;;;;;5.93;2.20;;;;;;;;;;5017387;28;20029;-29
2022/10/11 04:28:35;;;;;;;5.47;1.83;;;;;;;;;;5017373;28;20094;-29
2022/10/11 04:31:03;;;;;;;4.25;1.63;;;;;;;;;;5017357;28;20025;-28
2022/10/11 04:33:30;;;;;;;5.20;2.05;;;;;;;;;;5017250;28;20073;-29
2022/10/11 04:35:56;;;;;;;7.55;1.92;;;;;;;;;;5017269;28;20026;-28
2022/10/11 04:38:23;;;;;;;4.45;1.90;;;;;;;;;;5017189;28;20521;-28
2022/10/11 04:40:49;;;;;;;4.90;1.70;;;;;;;;;;5016943;28;20038;-28
2022/10/11 04:43:16;;;;;;;4.13;2.08;;;;;;;;;;5017010;28;20040;-28
2022/10/11 04:45:43;;;;;;;6.57;1.73;;;;;;;;;;5017332;28;20030;-28
2022/10/11 04:48:09;;;;;;;5.05;1.83;;;;;;;;;;5017028;28;20032;-28
2022/10/11 04:50:35;;;;;;;5.65;1.77;;;;;;;;;;5017204;28;20045;-28
2022/10/11 04:53:01;;;;;;;2.50;1.67;;;;;;;;;;5017117;28;20025;-28
2022/10/11 04:55:28;;;;;;;3.95;1.75;;;;;;;;;;5016891;28;20025;-29
2022/10/11 04:57:54;;;;;;;3.58;1.48;;;;;;;;;;5016801;28;20037;-28
2022/10/11 05:00:20;;;;;;;6.13;2.53;;;;;;;;;;5016684;28;20421;-28
2022/10/11 05:02:47;;;;;;;3.63;1.65;;;;;;;;;;5016512;28;20380;-29
2022/10/11 05:05:16;;;;;;;7.03;1.98;;;;;;;;;;5017013;28;20026;-28
2022/10/11 05:07:43;;;;;;;8.98;1.67;;;;;;;;;;5016985;28;20107;-29
2022/10/11 05:10:09;;;;;;;7.95;1.83;;;;;;;;;;5016626;28;20026;-28
2022/10/11 05:12:35;;;;;;;7.07;1.90;;;;;;;;;;5016779;28;20114;-29
2022/10/11 05:15:02;;;;;;;6.35;2.13;;;;;;;;;;5016583;28;20331;-29
2022/10/11 05:17:28;;;;;;;8.88;3.25;;;;;;;;;;5016522;28;20100;-28
2022/10/11 05:19:54;;;;;;;10.27;3.08;;;;;;;;;;5016467;28;20530;-28
2022/10/11 05:22:20;;;;;;;6.80;1.83;;;;;;;;;;5031923;28;20033;-29
2022/10/11 05:24:46;;;;;;;5.15;1.98;;;;;;;;;;5016582;28;20382;-28
2022/10/11 05:27:12;;;;;;;7.88;2.78;;;;;;;;;;5016240;28;20121;-28
2022/10/11 05:29:39;;;;;;;7.95;2.00;;;;;;;;;;5016534;28;20328;-28
2022/10/11 05:32:05;;;;;;;5.03;1.70;;;;;;;;;;5015619;28;20099;-28
2022/10/11 05:34:31;;;;;;;9.73;1.92;;;;;;;;;;5016168;28;20049;-28
2022/10/11 05:36:57;;;;;;;4.95;2.08;;;;;;;;;;5016097;28;20030;-28
2022/10/11 05:39:23;;;;;;;5.72;1.90;;;;;;;;;;5016194;28;20108;-28
2022/10/11 05:41:50;;;;;;;2.78;1.60;;;;;;;;;;5015862;28;20030;-28
2022/10/11 05:44:17;;;;;;;3.25;1.73;;;;;;;;;;5015921;28;20065;-28
2022/10/11 05:46:43;;;;;;;14.07;2.80;;;;;;;;;;5015759;28;20113;-28
2022/10/11 05:49:09;;;;;;;10.45;2.22;;;;;;;;;;5016127;28;20029;-29
2022/10/11 05:51:35;;;;;;;7.03;2.70;;;;;;;;;;5015952;28;20026;-28
2022/10/11 05:54:01;;;;;;;6.45;2.38;;;;;;;;;;5015980;28;20044;-28
2022/10/11 05:56:27;;;;;;;4.63;1.83;;;;;;;;;;5015940;28;20036;-28
2022/10/11 05:58:54;;;;;;;7.63;2.17;;;;;;;;;;5015355;28;20026;-28
2022/10/11 06:01:21;;;;;;;11.60;1.95;;;;;;;;;;5015494;28;20034;-31
2022/10/11 06:03:47;;;;;;;10.20;2.05;;;;;;;;;;5015201;28;20048;-28
2022/10/11 06:06:14;;;;;;;6.75;1.52;;;;;;;;;;5015519;28;20414;-28
2022/10/11 06:08:40;;;;;;;8.65;2.58;;;;;;;;;;5015472;28;20173;-30
2022/10/11 06:11:14;;;;;;;10.00;2.53;;;;;;;;;;5015407;28;20509;-29
2022/10/11 06:13:41;;;;;;;17.40;1.55;;;;;;;;;;5015400;28;20160;-28
2022/10/11 06:16:07;;;;;;;10.57;2.25;;;;;;;;;;5015527;28;20030;-28
2022/10/11 06:18:34;;;;;;;17.20;3.20;;;;;;;;;;5015137;28;20041;-28
2022/10/11 06:21:00;;;;;;;10.00;2.08;;;;;;;;;;5015199;28;20045;-28
2022/10/11 06:23:26;;;;;;;14.48;2.53;;;;;;;;;;5014941;28;20026;-28
2022/10/11 06:25:59;;;;;;;19.35;2.42;;;;;;;;;;5014908;28;20025;-28
2022/10/11 06:28:26;;;;;;;8.80;2.38;;;;;;;;;;5015241;28;20022;-28
2022/10/11 06:30:52;;;;;;;8.32;3.33;;;;;;;;;;5014969;28;20088;-28
2022/10/11 06:33:18;;;;;;;6.38;2.20;;;;;;;;;;5014972;28;20038;-28
2022/10/11 06:35:44;;;;;;;14.70;2.10;;;;;;;;;;5014993;28;20030;-27
2022/10/11 06:38:11;;;;;;;13.85;2.65;;;;;;;;;;5014911;28;20030;-28
2022/10/11 06:40:37;;;;;;;14.40;2.30;;;;;;;;;;5014720;28;20040;-27
2022/10/11 06:43:03;;;;;;;10.10;2.35;;;;;;;;;;5014828;28;20508;-28
2022/10/11 06:45:29;;;;;;;12.73;2.53;;;;;;;;;;5015183;28;20021;-28
2022/10/11 06:47:55;;;;;;;12.80;2.25;;;;;;;;;;5015080;28;20038;-28
2022/10/11 06:50:21;;;;;;;12.20;2.15;;;;;;;;;;5014879;28;20025;-28
2022/10/11 06:52:47;;;;;;;10.05;3.00;;;;;;;;;;5014597;28;20035;-29
2022/10/11 06:55:14;;;;;;;10.90;2.20;;;;;;;;;;5014506;28;20025;-28
2022/10/11 06:57:40;;;;;;;11.45;2.60;;;;;;;;;;5014780;28;20030;-27
2022/10/11 07:00:07;;;;;;;12.18;2.55;;;;;;;;;;5014605;28;20044;-27
2022/10/11 07:02:33;;;;;;;11.02;2.70;;;;;;;;;;5014286;28;20049;-27
2022/10/11 07:04:59;;;;;;;18.38;3.20;;;;;;;;;;5030071;28;20033;-27
2022/10/11 07:07:25;;;;;;;16.20;2.60;;;;;;;;;;5014524;28;20034;-27
2022/10/11 07:09:51;;;;;;;20.67;3.60;;;;;;;;;;5014597;28;20057;-27
2022/10/11 07:12:18;;;;;;;9.88;2.67;;;;;;;;;;5014736;28;20332;-27
2022/10/11 07:14:44;;;;;;;5.72;2.40;;;;;;;;;;5014479;28;20422;-27
2022/10/11 07:17:10;;;;;;;9.75;2.67;;;;;;;;;;5014796;28;20064;-27
2022/10/11 07:19:36;;;;;;;23.35;3.95;;;;;;;;;;5014645;28;20036;-27
2022/10/11 07:22:02;;;;;;;14.20;2.97;;;;;;;;;;5014788;28;20038;-27
2022/10/11 07:24:28;;;;;;;12.20;2.92;;;;;;;;;;5014563;28;20032;-27
2022/10/11 07:26:54;;;;;;;17.50;3.38;;;;;;;;;;5014268;28;20026;-28
2022/10/11 07:29:21;;;;;;;15.55;4.70;;;;;;;;;;5014407;28;20022;-28
2022/10/11 07:31:47;;;;;;;19.05;2.72;;;;;;;;;;5014253;28;20064;-28
2022/10/11 07:34:14;;;;;;;6.90;2.85;;;;;;;;;;5014370;28;20022;-28
2022/10/11 07:36:40;;;;;;;22.98;2.67;;;;;;;;;;5014404;28;20030;-28
2022/10/11 07:39:07;;;;;;;9.68;2.80;;;;;;;;;;5014601;28;20419;-28
2022/10/11 07:41:35;;;;;;;22.58;2.88;;;;;;;;;;5014331;28;20359;-28
2022/10/11 07:44:02;;;;;;;22.63;2.42;;;;;;;;;;5014231;28;20025;-28
2022/10/11 07:46:28;;;;;;;16.45;2.92;;;;;;;;;;5014221;28;20026;-28
2022/10/11 07:48:54;;;;;;;15.45;2.50;;;;;;;;;;5014533;28;20032;-28
2022/10/11 07:51:21;;;;;;;15.07;3.03;;;;;;;;;;5015470;28;20088;-29
2022/10/11 07:53:48;;;;;;;30.10;2.70;;;;;;;;;;5017976;28;20036;-29
2022/10/11 07:56:16;;;;;;;15.30;2.83;;;;;;;;;;5017980;28;20029;-28
2022/10/11 07:58:43;;;;;;;18.42;2.72;;;;;;;;;;5017899;28;20102;-29
2022/10/11 08:01:09;;;;;;;17.08;3.00;;;;;;;;;;5033493;28;20100;-29
2022/10/11 08:03:36;;;;;;;27.75;4.18;;;;;;;;;;5017360;28;20046;-29
2022/10/11 08:06:04;;;;;;;12.02;2.50;;;;;;;;;;5017704;28;20497;-28
2022/10/11 08:08:31;;;;;;;23.63;2.10;;;;;;;;;;5017558;28;20037;-29
2022/10/11 08:10:57;;;;;;;16.88;2.78;;;;;;;;;;5017806;28;20049;-29
2022/10/11 08:13:24;;;;;;;15.68;3.10;;;;;;;;;;5017686;28;20030;-28
2022/10/11 08:15:51;;;;;;;13.88;2.70;;;;;;;;;;5016871;28;20041;-29
2022/10/11 08:18:17;;;;;;;22.45;3.40;;;;;;;;;;5017865;28;20050;-29
2022/10/11 08:20:44;;;;;;;28.98;3.80;;;;;;;;;;5017752;28;20057;-29
2022/10/11 08:23:10;;;;;;;15.00;2.25;;;;;;;;;;5017298;28;20026;-28
2022/10/11 08:25:40;;;;;;;26.33;3.60;;;;;;;;;;5017705;28;20355;-27
2022/10/11 08:28:06;;;;;;;32.45;4.43;;;;;;;;;;5017530;28;20033;-27
2022/10/11 08:30:33;;;;;;;25.30;3.67;;;;;;;;;;5017601;28;20350;-27
2022/10/11 08:32:59;;;;;;;23.95;3.05;;;;;;;;;;5017572;28;20022;-27
2022/10/11 08:35:26;;;;;;;21.17;4.80;;;;;;;;;;5017111;28;20451;-27
2022/10/11 08:37:52;;;;;;;32.92;4.30;;;;;;;;;;5017500;28;20401;-27
2022/10/11 08:40:19;;;;;;;25.30;3.90;;;;;;;;;;5017112;28;20483;-28
2022/10/11 08:42:52;;;;;;;41.88;6.30;;;;;;;;;;5017073;28;20034;-28
2022/10/11 08:45:28;;;;;;;21.10;3.88;;;;;;;;;;5017330;28;20030;-28
2022/10/11 08:48:01;;;;;;;23.05;4.78;;;;;;;;;;5017383;28;20033;-28
2022/10/11 08:50:27;;;;;;;31.55;3.72;;;;;;;;;;5017037;28;20041;-29
2022/10/11 08:52:56;;;;;;;28.42;4.13;;;;;;;;;;5032397;28;20022;-29
2022/10/11 08:55:25;;;;;;;27.05;4.47;;;;;;;;;;5016803;28;20052;-29
2022/10/11 08:57:56;;;;;;;29.90;4.03;;;;;;;;;;5016839;28;20030;-28
2022/10/11 09:00:22;;;;;;;28.30;3.67;;;;;;;;;;5032432;28;20043;-28
2022/10/11 09:03:07;;;;;;;28.40;3.60;;;;;;;;;;5016316;28;20050;-28
2022/10/11 09:05:35;;;;;;;26.35;4.03;;;;;;;;;;5016736;28;20038;-29
2022/10/11 09:08:18;;;;;;;11.50;2.60;;;;;;;;;;5016699;28;20116;-28
2022/10/11 09:11:02;;;;;;;24.63;3.85;;;;;;;;;;5032247;28;20125;-29
2022/10/11 09:13:48;;;;;;;27.98;3.42;;;;;;;;;;5016539;28;20038;-28
2022/10/11 09:16:14;;;;;;;26.00;3.40;;;;;;;;;;5016830;28;20113;-29
2022/10/11 09:18:46;;;;;;;19.83;3.40;;;;;;;;;;5016770;28;20018;-29
2022/10/11 09:21:32;;;;;;;26.95;4.25;;;;;;;;;;5016661;28;20053;-29
2022/10/11 09:24:22;;;;;;;23.65;4.25;;;;;;;;;;4986208;28;20044;-29
2022/10/11 09:26:56;;;;;;;26.02;3.72;;;;;;;;;;5016662;28;20084;-29
2022/10/11 09:29:45;;;;;;;25.55;2.90;;;;;;;;;;5016169;28;20111;-29
2022/10/11 09:32:15;;;;;;;22.60;3.47;;;;;;;;;;5016199;28;20033;-28
2022/10/11 09:34:41;;;;;;;23.57;4.23;;;;;;;;;;5016581;28;20026;-29
2022/10/11 09:37:26;;;;;;;21.13;2.92;;;;;;;;;;5016402;28;20048;-29
2022/10/11 09:40:10;;;;;;;26.42;3.53;;;;;;;;;;5015992;28;20474;-29
2022/10/11 09:42:36;;;;;;;23.77;3.28;;;;;;;;;;5015881;28;20026;-28
2022/10/11 09:45:12;;;;;;;14.95;2.42;;;;;;;;;;5016046;28;20049;-29
2022/10/11 09:47:38;;;;;;;26.83;3.67;;;;;;;;;;5016184;28;20046;-28
2022/10/11 09:50:06;;;;;;;13.55;2.90;;;;;;;;;;5016179;28;20053;-29
2022/10/11 09:52:33;;;;;;;25.80;4.30;;;;;;;;;;5015791;28;20041;-28
2022/10/11 09:55:01;;;;;;;20.35;3.20;;;;;;;;;;5015849;28;20033;-29
2022/10/11 09:57:28;;;;;;;33.83;3.40;;;;;;;;;;5016113;28;20033;-29
2022/10/11 10:00:00;;;;;;;52.08;5.88;;;;;;;;;;5015659;28;20034;-28
2022/10/11 10:02:28;;;;;;;25.25;2.75;;;;;;;;;;5015556;28;20046;-29
2022/10/11 10:05:01;;;;;;;31.88;3.95;;;;;;;;;;5015420;28;20030;-28
2022/10/11 10:07:28;;;;;;;25.85;3.78;;;;;;;;;;5015581;28;20022;-28
2022/10/11 10:09:54;;;;;;;29.50;4.60;;;;;;;;;;5015523;28;20026;-29
2022/10/11 10:12:22;;;;;;;28.73;3.28;;;;;;;;;;5015676;28;20332;-28
2022/10/11 10:15:14;;;;;;;21.27;3.53;;;;;;;;;;5014900;28;20092;-29
2022/10/11 10:17:47;;;;;;;27.23;4.93;;;;;;;;;;5013093;28;20132;-29
2022/10/11 10:20:19;;;;;;;33.17;5.03;;;;;;;;;;5015235;28;20053;-29
2022/10/11 10:22:46;;;;;;;33.53;3.70;;;;;;;;;;5015415;28;20040;-28
2022/10/11 10:25:20;;;;;;;35.85;3.75;;;;;;;;;;5015394;28;20034;-29
2022/10/11 10:27:56;;;;;;;22.30;4.32;;;;;;;;;;5015460;28;20088;-29
2022/10/11 10:30:23;;;;;;;14.38;3.30;;;;;;;;;;5015398;28;20109;-29
2022/10/11 10:33:10;;;;;;;19.77;4.18;;;;;;;;;;5015027;28;20032;-29
2022/10/11 10:35:50;;;;;;;25.23;2.72;;;;;;;;;;5015079;28;20101;-28
2022/10/11 10:38:22;;;;;;;32.10;3.13;;;;;;;;;;5015330;28;20030;-28
2022/10/11 10:40:57;;;;;;;26.05;3.10;;;;;;;;;;5015239;28;20772;-29
2022/10/11 10:43:42;;;;;;;18.52;4.35;;;;;;;;;;5014876;28;20033;-29
2022/10/11 10:46:17;;;;;;;41.15;7.10;;;;;;;;;;5014901;28;20037;-28
2022/10/11 10:48:49;;;;;;;72.28;7.85;;;;;;;;;;5014756;28;20039;-29
2022/10/11 10:51:23;;;;;;;33.45;3.53;;;;;;;;;;5014863;28;20451;-29
2022/10/11 10:54:10;;;;;;;23.17;4.80;;;;;;;;;;5014818;28;20036;-28
2022/10/11 10:57:02;;;;;;;42.92;6.07;;;;;;;;;;5030333;28;20097;-29
2022/10/11 10:59:43;;;;;;;32.03;3.97;;;;;;;;;;5012278;28;20379;-29
2022/10/11 11:02:13;;;;;;;33.15;3.83;;;;;;;;;;5014866;28;20037;-29
2022/10/11 11:04:44;;;;;;;26.60;3.53;;;;;;;;;;5014970;28;20026;-29
2022/10/11 11:07:18;;;;;;;32.75;5.30;;;;;;;;;;5015016;28;20420;-29
2022/10/11 11:10:05;;;;;;;37.40;5.43;;;;;;;;;;5014725;28;20048;-29
2022/10/11 11:12:40;;;;;;;37.38;4.75;;;;;;;;;;5014658;28;20026;-28
2022/10/11 11:15:11;;;;;;;31.10;4.15;;;;;;;;;;5014604;28;20030;-28
2022/10/11 11:17:49;;;;;;;45.30;5.28;;;;;;;;;;5014626;28;20022;-28
2022/10/11 11:20:15;;;;;;;29.25;3.72;;;;;;;;;;5014875;28;20041;-29
2022/10/11 11:23:00;;;;;;;22.75;3.55;;;;;;;;;;5014496;28;20124;-28
2022/10/11 11:25:39;;;;;;;33.22;5.13;;;;;;;;;;5015991;28;20033;-29
2022/10/11 11:28:26;;;;;;;38.88;5.60;;;;;;;;;;5018713;28;20057;-29
2022/10/11 11:31:00;;;;;;;17.98;3.38;;;;;;;;;;5018443;28;20037;-29
2022/10/11 11:33:42;;;;;;;23.05;6.40;;;;;;;;;;5018674;28;20148;-28
2022/10/11 11:36:14;;;;;;;33.03;4.10;;;;;;;;;;5018628;28;20097;-28
2022/10/11 11:38:51;;;;;;;26.25;4.25;;;;;;;;;;5018371;28;20084;-28
2022/10/11 11:41:21;;;;;;;17.48;3.35;;;;;;;;;;5018646;28;20366;-28
2022/10/11 11:43:56;;;;;;;26.30;3.38;;;;;;;;;;5018414;28;20034;-28
2022/10/11 11:46:27;;;;;;;32.00;3.65;;;;;;;;;;5018486;28;20048;-29
2022/10/11 11:48:54;;;;;;;29.20;4.53;;;;;;;;;;5018208;28;20034;-28
2022/10/11 11:51:33;;;;;;;22.88;3.38;;;;;;;;;;5018092;28;20030;-28
2022/10/11 11:53:59;;;;;;;16.85;3.28;;;;;;;;;;5018111;28;20057;-28
2022/10/11 11:56:29;;;;;;;24.00;3.28;;;;;;;;;;5018059;28;20065;-28
2022/10/11 11:58:59;;;;;;;18.10;3.25;;;;;;;;;;5018140;28;20122;-28
2022/10/11 12:01:42;;;;;;;19.98;3.83;;;;;;;;;;5018101;28;20088;-28
2022/10/11 12:04:27;;;;;;;28.52;4.38;;;;;;;;;;5017671;28;20041;-28
2022/10/11 12:07:10;;;;;;;30.35;3.55;;;;;;;;;;5018131;28;20083;-28
2022/10/11 12:09:38;;;;;;;29.42;4.05;;;;;;;;;;5018110;28;20152;-28
2022/10/11 12:12:05;;;;;;;41.00;4.38;;;;;;;;;;5017577;28;20508;-29
2022/10/11 12:14:34;;;;;;;43.03;5.00;;;;;;;;;;5017707;28;20038;-28
2022/10/11 12:17:15;;;;;;;35.03;6.43;;;;;;;;;;5017842;28;20117;-28
2022/10/11 12:19:58;;;;;;;29.63;3.55;;;;;;;;;;5017513;28;20099;-28
2022/10/11 12:22:27;;;;;;;60.05;8.25;;;;;;;;;;5017413;28;20037;-28
2022/10/11 12:24:55;;;;;;;43.17;5.68;;;;;;;;;;5017626;28;20034;-28
2022/10/11 12:27:40;;;;;;;26.83;3.85;;;;;;;;;;5017459;28;20022;-28
2022/10/11 12:30:24;;;;;;;34.20;5.45;;;;;;;;;;5017216;28;20034;-28
2022/10/11 12:32:52;;;;;;;30.02;3.75;;;;;;;;;;5017867;28;20038;-28
2022/10/11 12:35:30;;;;;;;39.95;6.57;;;;;;;;;;5017543;28;20037;-28
2022/10/11 12:38:05;;;;;;;27.90;5.40;;;;;;;;;;5016768;28;20056;-28
2022/10/11 12:40:41;;;;;;;19.80;5.55;;;;;;;;;;5017521;28;20164;-28
2022/10/11 12:43:13;;;;;;;27.63;4.40;;;;;;;;;;5017273;28;20109;-28
2022/10/11 12:45:42;;;;;;;19.20;4.60;;;;;;;;;;5017050;28;20355;-28
2022/10/11 12:48:21;;;;;;;23.92;3.47;;;;;;;;;;5017118;28;20021;-30
2022/10/11 12:50:50;;;;;;;20.70;3.58;;;;;;;;;;5032504;28;20479;-29
2022/10/11 12:53:35;;;;;;;23.05;3.78;;;;;;;;;;5016745;28;20026;-29
2022/10/11 12:56:05;;;;;;;34.83;6.80;;;;;;;;;;5017174;28;20026;-29
2022/10/11 12:58:37;;;;;;;28.92;3.95;;;;;;;;;;5016771;28;20097;-29
2022/10/11 13:01:03;;;;;;;20.42;4.07;;;;;;;;;;5016735;28;20056;-29
2022/10/11 13:03:32;;;;;;;29.88;4.57;;;;;;;;;;5016524;28;20422;-27
2022/10/11 13:05:59;;;;;;;20.02;4.25;;;;;;;;;;5016876;28;20030;-29
2022/10/11 13:08:28;;;;;;;44.08;6.40;;;;;;;;;;5016666;28;20414;-27
2022/10/11 13:10:55;;;;;;;13.30;2.92;;;;;;;;;;5016586;28;20022;-27
2022/10/11 13:13:24;;;;;;;27.33;3.75;;;;;;;;;;5032029;28;20026;-28
2022/10/11 13:15:52;;;;;;;24.05;3.47;;;;;;;;;;5016876;28;20352;-28
2022/10/11 13:18:21;;;;;;;23.15;3.80;;;;;;;;;;5016515;28;20439;-27
2022/10/11 13:20:47;;;;;;;36.45;5.18;;;;;;;;;;5016463;28;20414;-28
2022/10/11 13:23:22;;;;;;;15.57;3.28;;;;;;;;;;5016220;28;20033;-28
2022/10/11 13:25:48;;;;;;;23.50;4.13;;;;;;;;;;5016879;28;20443;-27
2022/10/11 13:28:15;;;;;;;22.08;5.07;;;;;;;;;;5016546;28;20022;-28
2022/10/11 13:30:45;;;;;;;27.73;4.70;;;;;;;;;;5016611;28;20336;-28
2022/10/11 13:33:23;;;;;;;22.85;3.40;;;;;;;;;;5016478;28;20037;-28
2022/10/11 13:35:50;;;;;;;21.73;4.68;;;;;;;;;;5016595;28;20509;-28
2022/10/11 13:38:33;;;;;;;20.65;3.40;;;;;;;;;;5016422;28;20354;-28
2022/10/11 13:41:01;;;;;;;22.30;4.30;;;;;;;;;;5016074;28;20022;-28
2022/10/11 13:43:28;;;;;;;21.08;3.88;;;;;;;;;;5016102;28;20421;-28
2022/10/11 13:45:55;;;;;;;13.75;3.92;;;;;;;;;;5016045;28;20034;-28
2022/10/11 13:48:22;;;;;;;22.75;4.65;;;;;;;;;;5016252;28;20022;-28
2022/10/11 13:51:06;;;;;;;18.77;3.55;;;;;;;;;;5015975;28;20040;-28
2022/10/11 13:53:33;;;;;;;17.27;3.50;;;;;;;;;;5015917;28;20375;-28
2022/10/11 13:56:00;;;;;;;21.23;4.22;;;;;;;;;;5016075;28;20501;-28
2022/10/11 13:58:28;;;;;;;22.55;3.10;;;;;;;;;;5015817;28;20042;-28
2022/10/11 14:00:58;;;;;;;30.60;4.97;;;;;;;;;;5015751;28;20030;-28
2022/10/11 14:03:37;;;;;;;32.42;4.75;;;;;;;;;;5015410;28;20057;-28
2022/10/11 14:06:03;;;;;;;19.02;3.47;;;;;;;;;;5016020;28;20057;-28
2022/10/11 14:08:29;;;;;;;20.35;4.35;;;;;;;;;;5015667;28;20021;-28
2022/10/11 14:10:55;;;;;;;16.65;4.38;;;;;;;;;;5015872;28;20360;-28
2022/10/11 14:13:22;;;;;;;20.85;3.95;;;;;;;;;;5015494;28;20109;-28
2022/10/11 14:15:58;;;;;;;25.60;3.50;;;;;;;;;;5015469;28;20120;-28
2022/10/11 14:18:36;;;;;;;29.90;5.07;;;;;;;;;;5015410;28;20041;-27
2022/10/11 14:21:21;;;;;;;22.73;4.18;;;;;;;;;;5015637;28;20057;-28
2022/10/11 14:23:51;;;;;;;19.08;3.15;;;;;;;;;;5015482;28;20055;-28
2022/10/11 14:26:17;;;;;;;16.45;3.35;;;;;;;;;;5015338;28;20050;-28
2022/10/11 14:28:44;;;;;;;27.20;4.35;;;;;;;;;;5015275;28;20084;-28
2022/10/11 14:31:10;;;;;;;24.05;3.10;;;;;;;;;;5015274;28;20029;-28
2022/10/11 14:33:37;;;;;;;26.17;4.30;;;;;;;;;;5015437;28;20018;-28
2022/10/11 14:36:04;;;;;;;19.15;3.78;;;;;;;;;;5015452;28;20045;-28
2022/10/11 14:38:30;;;;;;;27.38;3.80;;;;;;;;;;5015096;28;20117;-28
2022/10/11 14:40:56;;;;;;;27.70;3.58;;;;;;;;;;5015198;28;20355;-28
2022/10/11 14:43:22;;;;;;;21.48;3.13;;;;;;;;;;5014979;28;20392;-28
2022/10/11 14:45:48;;;;;;;22.63;3.78;;;;;;;;;;5015058;28;20036;-28
2022/10/11 14:48:14;;;;;;;21.77;3.83;;;;;;;;;;5015026;28;20030;-28
2022/10/11 14:50:44;;;;;;;18.52;3.63;;;;;;;;;;5015259;28;20451;-28
2022/10/11 14:53:11;;;;;;;14.77;3.88;;;;;;;;;;5014921;28;20026;-28